createdAt,value
2018-12-31T00:01:12.926Z,7.55
2018-12-31T00:03:39.839Z,7.52
2018-12-31T00:06:06.778Z,7.50
2018-12-31T00:08:33.685Z,7.52
2018-12-31T00:11:00.605Z,7.53
2018-12-31T00:13:27.588Z,7.52
2018-12-31T00:15:54.479Z,7.54
2018-12-31T00:18:21.409Z,7.52
2018-12-31T00:20:48.312Z,7.42
2018-12-31T00:23:15.252Z,7.55
2018-12-31T00:25:42.137Z,7.54
2018-12-31T00:28:09.222Z,7.55
2018-12-31T00:30:36.104Z,7.64
2018-12-31T00:33:03.039Z,7.59
2018-12-31T00:35:29.944Z,7.69
2018-12-31T00:37:56.871Z,7.66
2018-12-31T00:40:23.770Z,7.69
2018-12-31T00:42:50.698Z,7.61
2018-12-31T00:45:17.613Z,7.80
2018-12-31T00:47:44.584Z,7.71
2018-12-31T00:50:11.477Z,7.73
2018-12-31T00:52:38.401Z,7.79
2018-12-31T00:55:05.292Z,7.71
2018-12-31T00:57:32.232Z,7.67
2018-12-31T00:59:59.173Z,7.70
2018-12-31T01:02:26.091Z,7.78
2018-12-31T01:04:53.166Z,7.75
2018-12-31T01:07:20.074Z,7.71
2018-12-31T01:09:47.000Z,7.70
2018-12-31T01:12:13.932Z,7.77
2018-12-31T01:14:40.848Z,7.90
2018-12-31T01:17:07.793Z,7.77
2018-12-31T01:19:34.677Z,7.77
2018-12-31T01:22:01.612Z,7.74
2018-12-31T01:24:28.529Z,7.79
2018-12-31T01:26:55.444Z,7.79
2018-12-31T01:29:22.344Z,7.83
2018-12-31T01:31:49.300Z,7.89
2018-12-31T01:34:16.191Z,7.84
2018-12-31T01:36:43.100Z,7.89
2018-12-31T01:39:10.048Z,7.95
2018-12-31T01:41:36.975Z,7.86
2018-12-31T01:44:03.922Z,7.84
2018-12-31T01:46:30.840Z,7.80
2018-12-31T01:48:57.778Z,7.85
2018-12-31T01:51:24.667Z,7.91
2018-12-31T01:53:51.628Z,7.86
2018-12-31T01:56:18.522Z,7.90
2018-12-31T01:58:45.445Z,7.86
2018-12-31T02:01:12.336Z,7.95
2018-12-31T02:03:39.254Z,7.90
2018-12-31T02:06:06.136Z,7.87
2018-12-31T02:08:33.047Z,7.91
2018-12-31T02:10:59.951Z,7.90
2018-12-31T02:13:26.894Z,7.95
2018-12-31T02:15:53.805Z,7.99
2018-12-31T02:18:20.720Z,8.04
2018-12-31T02:20:47.627Z,8.03
2018-12-31T02:23:14.535Z,7.98
2018-12-31T02:25:41.424Z,8.10
2018-12-31T02:28:08.394Z,8.00
2018-12-31T02:30:35.277Z,7.99
2018-12-31T02:33:02.188Z,8.04
2018-12-31T02:35:29.167Z,8.12
2018-12-31T02:37:56.043Z,8.17
2018-12-31T02:40:23.537Z,8.14
2018-12-31T02:42:50.441Z,8.01
2018-12-31T02:45:17.355Z,8.20
2018-12-31T02:47:44.278Z,8.05
2018-12-31T02:50:11.212Z,8.10
2018-12-31T02:52:38.191Z,8.11
2018-12-31T02:55:05.107Z,8.11
2018-12-31T02:57:31.995Z,8.17
2018-12-31T02:59:59.141Z,8.17
2018-12-31T03:02:26.160Z,8.15
2018-12-31T03:04:53.092Z,8.16
2018-12-31T03:07:19.970Z,8.12
2018-12-31T03:09:46.927Z,8.15
2018-12-31T03:12:13.828Z,8.14
2018-12-31T03:14:40.794Z,8.16
2018-12-31T03:17:07.692Z,8.09
2018-12-31T03:19:34.633Z,8.08
2018-12-31T03:22:01.557Z,8.17
2018-12-31T03:24:28.498Z,8.05
2018-12-31T03:26:55.390Z,8.15
2018-12-31T03:29:22.318Z,8.17
2018-12-31T03:31:49.231Z,8.18
2018-12-31T03:34:16.147Z,8.10
2018-12-31T03:36:43.048Z,8.04
2018-12-31T03:39:10.016Z,8.05
2018-12-31T03:41:36.908Z,8.08
2018-12-31T03:44:03.858Z,8.02
2018-12-31T03:46:30.824Z,8.08
2018-12-31T03:48:57.742Z,8.04
2018-12-31T03:51:24.653Z,8.18
2018-12-31T03:53:51.560Z,8.09
2018-12-31T03:56:18.473Z,8.18
2018-12-31T03:58:45.389Z,8.12
2018-12-31T04:01:12.369Z,8.17
2018-12-31T04:03:39.262Z,8.19
2018-12-31T04:06:06.223Z,8.14
2018-12-31T04:08:33.122Z,8.14
2018-12-31T04:11:00.058Z,8.15
2018-12-31T04:13:26.925Z,8.05
2018-12-31T04:15:53.874Z,8.14
2018-12-31T04:18:20.755Z,8.17
2018-12-31T04:20:47.670Z,8.19
2018-12-31T04:23:14.578Z,8.20
2018-12-31T04:25:41.483Z,8.36
2018-12-31T04:28:08.373Z,8.29
2018-12-31T04:30:35.579Z,8.21
2018-12-31T04:33:02.466Z,8.16
2018-12-31T04:35:29.368Z,8.17
2018-12-31T04:37:56.251Z,8.20
2018-12-31T04:40:23.159Z,8.20
2018-12-31T04:42:50.049Z,8.21
2018-12-31T04:45:16.971Z,8.26
2018-12-31T04:47:43.895Z,8.27
2018-12-31T04:50:10.822Z,8.31
2018-12-31T04:52:37.715Z,8.32
2018-12-31T04:55:04.645Z,8.28
2018-12-31T04:57:31.521Z,8.30
2018-12-31T04:59:58.442Z,8.28
2018-12-31T05:02:25.328Z,8.35
2018-12-31T05:04:52.285Z,8.29
2018-12-31T05:07:19.189Z,8.30
2018-12-31T05:09:46.104Z,8.33
2018-12-31T05:12:13.010Z,8.36
2018-12-31T05:14:39.925Z,8.38
2018-12-31T05:17:06.832Z,8.31
2018-12-31T05:19:33.728Z,8.34
2018-12-31T05:22:00.654Z,8.35
2018-12-31T05:24:27.547Z,8.36
2018-12-31T05:26:54.465Z,8.40
2018-12-31T05:29:21.354Z,8.48
2018-12-31T05:31:48.295Z,8.50
2018-12-31T05:34:15.181Z,8.48
2018-12-31T05:36:42.116Z,8.43
2018-12-31T05:39:08.995Z,8.39
2018-12-31T05:41:35.915Z,8.40
2018-12-31T05:44:02.821Z,8.42
2018-12-31T05:46:29.756Z,8.50
2018-12-31T05:48:56.649Z,8.53
2018-12-31T05:51:23.578Z,8.61
2018-12-31T05:53:50.455Z,8.55
2018-12-31T05:56:17.378Z,8.46
2018-12-31T05:58:44.261Z,8.47
2018-12-31T06:01:11.179Z,8.63
2018-12-31T06:03:38.081Z,8.53
2018-12-31T06:06:05.006Z,8.49
2018-12-31T06:08:31.913Z,8.46
2018-12-31T06:10:58.800Z,8.47
2018-12-31T06:13:25.726Z,8.44
2018-12-31T06:15:52.611Z,8.57
2018-12-31T06:18:19.611Z,8.63
2018-12-31T06:20:46.497Z,8.53
2018-12-31T06:23:13.407Z,8.57
2018-12-31T06:25:40.298Z,8.52
2018-12-31T06:28:07.222Z,8.58
2018-12-31T06:30:34.114Z,8.50
2018-12-31T06:33:01.039Z,8.48
2018-12-31T06:35:29.443Z,8.48
2018-12-31T06:37:56.323Z,8.54
2018-12-31T06:40:23.228Z,8.67
2018-12-31T06:42:50.155Z,8.56
2018-12-31T06:45:17.026Z,8.54
2018-12-31T06:47:43.987Z,8.47
2018-12-31T06:50:10.880Z,8.52
2018-12-31T06:52:37.919Z,8.55
2018-12-31T06:55:04.808Z,8.56
2018-12-31T06:57:31.756Z,8.54
2018-12-31T06:59:58.654Z,8.52
2018-12-31T07:02:25.580Z,8.69
2018-12-31T07:04:53.132Z,8.62
2018-12-31T07:07:20.043Z,8.63
2018-12-31T07:09:46.937Z,8.59
2018-12-31T07:12:13.831Z,8.66
2018-12-31T07:14:40.759Z,8.63
2018-12-31T07:17:07.656Z,8.61
2018-12-31T07:19:34.584Z,8.56
2018-12-31T07:22:01.491Z,8.57
2018-12-31T07:24:28.408Z,8.60
2018-12-31T07:26:55.280Z,8.65
2018-12-31T07:29:22.203Z,8.70
2018-12-31T07:31:49.094Z,8.77
2018-12-31T07:34:16.010Z,8.73
2018-12-31T07:36:42.883Z,8.68
2018-12-31T07:39:09.797Z,8.66
2018-12-31T07:41:36.676Z,8.62
2018-12-31T07:44:03.620Z,8.66
2018-12-31T07:46:30.533Z,8.76
2018-12-31T07:48:57.471Z,8.82
2018-12-31T07:51:24.685Z,8.80
2018-12-31T07:53:51.605Z,8.85
2018-12-31T07:56:18.504Z,8.80
2018-12-31T07:58:45.431Z,8.79
2018-12-31T08:01:12.333Z,8.71
2018-12-31T08:03:39.275Z,8.83
2018-12-31T08:06:06.153Z,8.87
2018-12-31T08:08:33.076Z,8.77
2018-12-31T08:10:59.967Z,8.77
2018-12-31T08:13:26.915Z,8.74
2018-12-31T08:15:53.819Z,8.82
2018-12-31T08:18:20.699Z,8.89
2018-12-31T08:20:47.635Z,8.80
2018-12-31T08:23:14.513Z,8.86
2018-12-31T08:25:41.434Z,8.75
2018-12-31T08:28:08.334Z,8.80
2018-12-31T08:30:35.246Z,8.80
2018-12-31T08:33:02.145Z,8.75
2018-12-31T08:35:31.831Z,8.75
2018-12-31T08:37:58.716Z,8.81
2018-12-31T08:40:25.656Z,8.84
2018-12-31T08:42:52.560Z,8.79
2018-12-31T08:45:19.490Z,8.82
2018-12-31T08:47:46.402Z,8.86
2018-12-31T08:50:13.363Z,8.85
2018-12-31T08:52:40.259Z,8.83
2018-12-31T08:55:07.199Z,8.82
2018-12-31T08:57:34.114Z,9.01
2018-12-31T09:00:01.021Z,9.03
2018-12-31T09:02:27.913Z,8.97
2018-12-31T09:04:54.851Z,9.11
2018-12-31T09:07:21.795Z,8.98
2018-12-31T09:09:48.730Z,9.02
2018-12-31T09:12:15.727Z,8.98
2018-12-31T09:14:42.659Z,9.01
2018-12-31T09:17:09.567Z,8.98
2018-12-31T09:19:36.455Z,8.97
2018-12-31T09:22:03.433Z,9.04
2018-12-31T09:24:30.318Z,9.04
2018-12-31T09:26:57.251Z,9.13
2018-12-31T09:29:24.132Z,9.09
2018-12-31T09:31:51.053Z,9.10
2018-12-31T09:34:17.956Z,9.14
2018-12-31T09:36:44.894Z,9.22
2018-12-31T09:39:11.775Z,9.20
2018-12-31T09:41:38.684Z,9.27
2018-12-31T09:44:05.568Z,9.25
2018-12-31T09:46:32.533Z,9.33
2018-12-31T09:48:59.423Z,9.30
2018-12-31T09:51:26.506Z,9.29
2018-12-31T09:53:53.400Z,9.36
2018-12-31T09:56:20.334Z,9.41
2018-12-31T09:58:47.266Z,9.30
2018-12-31T10:01:14.188Z,9.30
2018-12-31T10:03:41.067Z,9.34
2018-12-31T10:06:08.082Z,9.34
2018-12-31T10:08:34.989Z,9.46
2018-12-31T10:11:01.992Z,9.41
2018-12-31T10:13:28.918Z,9.38
2018-12-31T10:15:55.828Z,9.45
2018-12-31T10:18:22.699Z,9.37
2018-12-31T10:20:49.617Z,9.39
2018-12-31T10:23:16.520Z,9.40
2018-12-31T10:25:43.471Z,9.37
2018-12-31T10:28:10.434Z,9.37
2018-12-31T10:30:37.467Z,9.36
2018-12-31T10:33:04.348Z,9.30
2018-12-31T10:35:31.264Z,9.33
2018-12-31T10:37:58.200Z,9.34
2018-12-31T10:40:25.139Z,9.36
2018-12-31T10:42:52.086Z,9.42
2018-12-31T10:45:19.010Z,9.46
2018-12-31T10:47:45.947Z,9.36
2018-12-31T10:50:12.867Z,9.44
2018-12-31T10:52:39.879Z,9.37
2018-12-31T10:55:06.790Z,9.37
2018-12-31T10:57:33.730Z,9.37
2018-12-31T11:00:00.604Z,9.37
2018-12-31T11:02:27.525Z,9.38
2018-12-31T11:04:54.400Z,9.32
2018-12-31T11:07:21.303Z,9.32
2018-12-31T11:09:48.218Z,9.40
2018-12-31T11:12:15.140Z,9.30
2018-12-31T11:14:42.047Z,9.36
2018-12-31T11:17:08.983Z,9.37
2018-12-31T11:19:35.988Z,9.38
2018-12-31T11:22:02.925Z,9.40
2018-12-31T11:24:29.845Z,9.36
2018-12-31T11:26:56.754Z,9.40
2018-12-31T11:29:23.639Z,9.49
2018-12-31T11:31:50.570Z,9.45
2018-12-31T11:34:17.463Z,9.51
2018-12-31T11:36:44.410Z,9.37
2018-12-31T11:39:11.301Z,9.36
2018-12-31T11:41:38.211Z,9.55
2018-12-31T11:44:05.097Z,9.27
2018-12-31T11:46:32.053Z,9.22
2018-12-31T11:48:58.942Z,9.29
2018-12-31T11:51:25.860Z,9.22
2018-12-31T11:53:52.757Z,9.28
2018-12-31T11:56:19.686Z,9.22
2018-12-31T11:58:46.600Z,9.34
2018-12-31T12:01:13.524Z,9.36
2018-12-31T12:03:40.515Z,9.32
2018-12-31T12:06:07.442Z,9.30
2018-12-31T12:08:34.359Z,9.43
2018-12-31T12:11:01.279Z,9.36
2018-12-31T12:13:28.463Z,9.35
2018-12-31T12:15:55.345Z,9.43
2018-12-31T12:18:22.271Z,9.51
2018-12-31T12:20:49.170Z,9.48
2018-12-31T12:23:16.099Z,9.46
2018-12-31T12:25:42.994Z,9.66
2018-12-31T12:28:10.221Z,9.53
2018-12-31T12:30:37.124Z,9.51
2018-12-31T12:33:04.044Z,9.63
2018-12-31T12:35:30.916Z,9.45
2018-12-31T12:37:57.961Z,9.48
2018-12-31T12:40:24.844Z,9.48
2018-12-31T12:42:51.784Z,9.50
2018-12-31T12:45:18.671Z,9.39
2018-12-31T12:47:45.604Z,9.43
2018-12-31T12:50:12.487Z,9.41
2018-12-31T12:52:39.405Z,9.49
2018-12-31T12:55:06.299Z,9.45
2018-12-31T12:57:33.208Z,9.43
2018-12-31T13:00:00.180Z,9.41
2018-12-31T13:02:27.203Z,9.42
2018-12-31T13:04:54.380Z,9.38
2018-12-31T13:07:21.335Z,9.50
2018-12-31T13:09:48.229Z,9.45
2018-12-31T13:12:15.148Z,9.48
2018-12-31T13:14:42.262Z,9.53
2018-12-31T13:17:09.144Z,9.50
2018-12-31T13:19:36.074Z,9.52
2018-12-31T13:22:02.957Z,9.48
2018-12-31T13:24:30.287Z,9.52
2018-12-31T13:26:57.196Z,9.44
2018-12-31T13:29:24.106Z,9.50
2018-12-31T13:31:51.031Z,9.49
2018-12-31T13:34:18.052Z,9.57
2018-12-31T13:36:44.953Z,9.73
2018-12-31T13:39:12.317Z,9.62
2018-12-31T13:41:39.242Z,9.62
2018-12-31T13:44:06.176Z,9.55
2018-12-31T13:46:33.095Z,9.73
2018-12-31T13:49:00.030Z,9.60
2018-12-31T13:51:26.921Z,9.69
2018-12-31T13:53:54.053Z,9.69
2018-12-31T13:56:20.959Z,9.71
2018-12-31T13:58:47.882Z,9.76
2018-12-31T14:01:14.759Z,9.73
2018-12-31T14:03:41.694Z,9.73
2018-12-31T14:06:08.586Z,9.71
2018-12-31T14:08:35.525Z,9.73
2018-12-31T14:11:02.437Z,9.78
2018-12-31T14:13:29.370Z,9.76
2018-12-31T14:15:56.295Z,9.78
2018-12-31T14:18:23.212Z,9.78
2018-12-31T14:20:50.111Z,9.79
2018-12-31T14:23:17.019Z,9.77
2018-12-31T14:25:43.933Z,9.66
2018-12-31T14:28:10.864Z,9.88
2018-12-31T14:30:37.764Z,9.76
2018-12-31T14:33:04.643Z,9.70
2018-12-31T14:35:31.901Z,9.81
2018-12-31T14:37:58.770Z,9.72
2018-12-31T14:40:25.682Z,9.78
2018-12-31T14:42:52.557Z,9.78
2018-12-31T14:45:19.527Z,9.80
2018-12-31T14:47:46.549Z,9.84
2018-12-31T14:50:13.868Z,9.78
2018-12-31T14:52:40.764Z,9.70
2018-12-31T14:55:07.682Z,9.71
2018-12-31T14:57:34.568Z,9.64
2018-12-31T15:00:01.484Z,9.65
2018-12-31T15:02:28.389Z,9.69
2018-12-31T15:04:55.710Z,9.61
2018-12-31T15:07:22.617Z,9.56
2018-12-31T15:09:49.537Z,9.57
2018-12-31T15:12:16.455Z,9.62
2018-12-31T15:14:43.491Z,9.62
2018-12-31T15:17:10.550Z,9.56
2018-12-31T15:19:37.771Z,9.69
2018-12-31T15:22:04.674Z,9.55
2018-12-31T15:24:31.590Z,9.55
2018-12-31T15:26:58.514Z,9.50
2018-12-31T15:29:25.497Z,9.51
2018-12-31T15:31:52.463Z,9.55
2018-12-31T15:34:19.783Z,9.43
2018-12-31T15:36:46.683Z,9.71
2018-12-31T15:39:13.667Z,9.49
2018-12-31T15:41:40.662Z,9.50
2018-12-31T15:44:07.620Z,9.48
2018-12-31T15:46:34.543Z,9.43
2018-12-31T15:49:01.488Z,9.50
2018-12-31T15:51:28.404Z,9.51
2018-12-31T15:53:55.324Z,9.50
2018-12-31T15:56:22.225Z,9.45
2018-12-31T15:58:49.178Z,9.51
2018-12-31T16:01:16.090Z,9.54
2018-12-31T16:03:43.066Z,9.44
2018-12-31T16:06:10.016Z,9.41
2018-12-31T16:08:36.935Z,9.36
2018-12-31T16:11:03.861Z,9.39
2018-12-31T16:13:30.754Z,9.29
2018-12-31T16:15:57.678Z,9.35
2018-12-31T16:18:24.570Z,9.35
2018-12-31T16:20:51.483Z,9.45
2018-12-31T16:23:18.362Z,9.43
2018-12-31T16:25:45.367Z,9.44
2018-12-31T16:28:12.263Z,9.34
2018-12-31T16:30:39.182Z,9.33
2018-12-31T16:33:06.099Z,9.29
2018-12-31T16:35:33.016Z,9.28
2018-12-31T16:37:59.944Z,9.31
2018-12-31T16:40:26.858Z,9.29
2018-12-31T16:42:53.743Z,9.37
2018-12-31T16:45:20.686Z,9.33
2018-12-31T16:47:47.588Z,9.35
2018-12-31T16:50:14.527Z,9.37
2018-12-31T16:52:41.516Z,9.32
2018-12-31T16:55:08.431Z,9.28
2018-12-31T16:57:35.328Z,9.33
2018-12-31T17:00:02.359Z,9.45
2018-12-31T17:02:29.349Z,9.31
2018-12-31T17:04:56.269Z,9.26
2018-12-31T17:07:28.298Z,9.31
2018-12-31T17:09:52.065Z,9.22
2018-12-31T17:12:18.947Z,9.24
2018-12-31T17:14:45.853Z,9.31
2018-12-31T17:17:13.139Z,9.34
2018-12-31T17:19:40.062Z,9.31
2018-12-31T17:22:06.962Z,9.40
2018-12-31T17:24:33.874Z,9.30
2018-12-31T17:27:00.783Z,9.28
2018-12-31T17:29:27.773Z,9.28
2018-12-31T17:31:54.776Z,9.20
2018-12-31T17:34:21.709Z,9.22
2018-12-31T17:36:48.592Z,9.36
2018-12-31T17:39:15.507Z,9.33
2018-12-31T17:41:42.979Z,9.34
2018-12-31T17:44:09.954Z,9.26
2018-12-31T17:46:38.806Z,9.28
2018-12-31T17:49:05.683Z,9.26
2018-12-31T17:51:32.609Z,9.22
2018-12-31T17:53:59.494Z,9.15
2018-12-31T17:56:26.428Z,9.18
2018-12-31T17:58:53.315Z,9.24
2018-12-31T18:01:20.241Z,9.18
2018-12-31T18:03:47.145Z,9.17
2018-12-31T18:06:14.088Z,9.27
2018-12-31T18:08:41.000Z,9.18
2018-12-31T18:11:07.922Z,9.23
2018-12-31T18:13:34.815Z,9.22
2018-12-31T18:16:01.957Z,9.21
2018-12-31T18:18:28.845Z,9.19
2018-12-31T18:20:55.764Z,9.20
2018-12-31T18:23:22.681Z,9.23
2018-12-31T18:25:50.192Z,9.28
2018-12-31T18:28:17.157Z,9.21
2018-12-31T18:30:44.090Z,9.22
2018-12-31T18:33:10.981Z,9.18
2018-12-31T18:35:37.919Z,9.12
2018-12-31T18:38:04.826Z,9.17
2018-12-31T18:40:31.761Z,9.27
2018-12-31T18:42:58.645Z,9.14
2018-12-31T18:45:25.561Z,9.25
2018-12-31T18:47:52.465Z,9.24
2018-12-31T18:50:19.383Z,9.32
2018-12-31T18:52:47.104Z,9.25
2018-12-31T18:55:14.059Z,9.24
2018-12-31T18:57:40.946Z,9.33
2018-12-31T19:00:07.981Z,9.16
2018-12-31T19:02:34.867Z,9.16
2018-12-31T19:05:01.824Z,9.25
2018-12-31T19:07:28.720Z,9.21
2018-12-31T19:09:55.682Z,9.23
2018-12-31T19:12:22.605Z,9.23
2018-12-31T19:14:49.536Z,9.19
2018-12-31T19:17:16.452Z,9.14
2018-12-31T19:19:43.345Z,9.21
2018-12-31T19:22:10.251Z,9.15
2018-12-31T19:24:37.160Z,9.11
2018-12-31T19:27:04.076Z,9.18
2018-12-31T19:29:31.181Z,9.12
2018-12-31T19:31:58.109Z,9.11
2018-12-31T19:34:24.982Z,9.13
2018-12-31T19:36:51.891Z,9.17
2018-12-31T19:39:18.814Z,9.20
2018-12-31T19:41:45.747Z,9.24
2018-12-31T19:44:12.935Z,9.27
2018-12-31T19:46:39.882Z,9.16
2018-12-31T19:49:06.759Z,9.15
2018-12-31T19:51:33.671Z,9.04
2018-12-31T19:54:00.590Z,9.06
2018-12-31T19:56:27.503Z,8.99
2018-12-31T19:58:54.796Z,9.13
2018-12-31T20:01:21.729Z,9.06
2018-12-31T20:03:48.619Z,8.95
2018-12-31T20:06:15.538Z,8.91
2018-12-31T20:08:42.422Z,8.86
2018-12-31T20:11:09.352Z,8.84
2018-12-31T20:13:36.461Z,8.95
2018-12-31T20:16:03.400Z,8.91
2018-12-31T20:18:30.315Z,8.95
2018-12-31T20:20:57.228Z,8.91
2018-12-31T20:23:24.135Z,8.82
2018-12-31T20:25:51.041Z,8.86
2018-12-31T20:28:17.929Z,8.82
2018-12-31T20:30:45.033Z,8.83
2018-12-31T20:33:11.928Z,8.83
2018-12-31T20:35:38.870Z,8.88
2018-12-31T20:38:05.753Z,8.84
2018-12-31T20:40:32.678Z,8.80
2018-12-31T20:42:59.563Z,8.82
2018-12-31T20:45:26.831Z,8.75
2018-12-31T20:48:01.501Z,8.85
2018-12-31T20:50:22.563Z,8.81
2018-12-31T20:52:49.439Z,8.86
2018-12-31T20:55:16.311Z,8.78
2018-12-31T20:57:43.225Z,8.80
2018-12-31T21:00:10.109Z,8.74
2018-12-31T21:02:37.043Z,8.73
2018-12-31T21:05:04.466Z,8.74
2018-12-31T21:07:31.382Z,8.64
2018-12-31T21:09:58.292Z,8.72
2018-12-31T21:12:25.230Z,8.65
2018-12-31T21:14:52.108Z,8.70
2018-12-31T21:17:19.056Z,8.73
2018-12-31T21:19:45.932Z,8.68
2018-12-31T21:22:12.842Z,8.64
2018-12-31T21:24:39.736Z,8.64
2018-12-31T21:27:07.311Z,8.60
2018-12-31T21:29:34.368Z,8.55
2018-12-31T21:32:01.385Z,8.60
2018-12-31T21:34:28.290Z,8.63
2018-12-31T21:36:55.210Z,8.65
2018-12-31T21:39:22.122Z,8.56
2018-12-31T21:41:49.038Z,8.58
2018-12-31T21:44:15.911Z,8.61
2018-12-31T21:46:43.360Z,8.58
2018-12-31T21:49:10.249Z,8.47
2018-12-31T21:51:37.188Z,8.44
2018-12-31T21:54:04.130Z,8.48
2018-12-31T21:56:31.011Z,8.43
2018-12-31T21:58:57.928Z,8.49
2018-12-31T22:01:24.804Z,8.56
2018-12-31T22:03:51.737Z,8.51
2018-12-31T22:06:18.628Z,8.47
2018-12-31T22:08:45.570Z,8.61
2018-12-31T22:11:12.449Z,8.54
2018-12-31T22:13:39.356Z,8.57
2018-12-31T22:16:06.270Z,8.52
2018-12-31T22:18:33.205Z,8.48
2018-12-31T22:21:00.095Z,8.54
2018-12-31T22:23:27.024Z,8.54
2018-12-31T22:25:53.929Z,8.51
2018-12-31T22:28:20.852Z,8.49
2018-12-31T22:30:47.739Z,8.43
2018-12-31T22:33:15.097Z,8.49
2018-12-31T22:35:41.995Z,8.49
2018-12-31T22:38:08.919Z,8.47
2018-12-31T22:40:35.802Z,8.46
2018-12-31T22:43:02.736Z,8.40
2018-12-31T22:45:29.619Z,8.45
2018-12-31T22:47:56.873Z,8.40
2018-12-31T22:50:23.742Z,8.54
2018-12-31T22:52:50.668Z,8.42
2018-12-31T22:55:17.566Z,8.40
2018-12-31T22:57:44.469Z,8.42
2018-12-31T23:00:11.387Z,8.47
2018-12-31T23:02:38.754Z,8.43
2018-12-31T23:05:07.830Z,8.41
2018-12-31T23:07:34.723Z,8.34
2018-12-31T23:10:01.665Z,8.40
2018-12-31T23:12:28.548Z,8.47
2018-12-31T23:14:56.225Z,8.36
2018-12-31T23:17:23.132Z,8.43
2018-12-31T23:19:50.070Z,8.39
2018-12-31T23:22:16.970Z,8.36
2018-12-31T23:24:43.905Z,8.38
2018-12-31T23:27:10.880Z,8.48
2018-12-31T23:29:37.812Z,8.40
2018-12-31T23:32:04.999Z,8.33
2018-12-31T23:34:31.921Z,8.35
2018-12-31T23:36:58.824Z,8.40
2018-12-31T23:39:25.766Z,8.38
2018-12-31T23:41:52.680Z,8.40
2018-12-31T23:44:19.592Z,8.34
2018-12-31T23:46:46.779Z,8.34
2018-12-31T23:49:13.703Z,8.42
2018-12-31T23:51:40.627Z,8.34
2018-12-31T23:54:07.549Z,8.31
2018-12-31T23:56:34.443Z,8.35
2018-12-31T23:59:01.361Z,8.44
